sensor_id;sensor_type;location;lat;lon;timestamp;pressure;altitude;pressure_sealevel;temperature;humidity
42691;BME280;28306;55.744;37.578;2022-10-26T00:02:16;100292.59;;;21.13;34.83
42691;BME280;28306;55.744;37.578;2022-10-26T00:04:42;100279.38;;;21.04;34.64
42691;BME280;28306;55.744;37.578;2022-10-26T00:07:08;100301.34;;;21.15;34.70
42691;BME280;28306;55.744;37.578;2022-10-26T00:09:33;100289.31;;;21.11;34.62
42691;BME280;28306;55.744;37.578;2022-10-26T00:11:59;100282.06;;;21.04;34.70
42691;BME280;28306;55.744;37.578;2022-10-26T00:14:25;100297.78;;;21.14;34.71
42691;BME280;28306;55.744;37.578;2022-10-26T00:16:51;100276.66;;;21.04;34.56
42691;BME280;28306;55.744;37.578;2022-10-26T00:19:17;100281.84;;;21.06;34.62
42691;BME280;28306;55.744;37.578;2022-10-26T00:21:42;100284.34;;;21.08;34.61
42691;BME280;28306;55.744;37.578;2022-10-26T00:24:10;100289.91;;;21.13;34.75
42691;BME280;28306;55.744;37.578;2022-10-26T00:26:36;100286.38;;;21.12;34.74
42691;BME280;28306;55.744;37.578;2022-10-26T00:29:02;100285.41;;;21.06;34.69
42691;BME280;28306;55.744;37.578;2022-10-26T00:31:27;100279.75;;;21.08;34.67
42691;BME280;28306;55.744;37.578;2022-10-26T00:33:54;100282.44;;;21.08;34.75
42691;BME280;28306;55.744;37.578;2022-10-26T00:36:21;100258.84;;;20.97;34.76
42691;BME280;28306;55.744;37.578;2022-10-26T00:38:51;100281.78;;;21.13;34.69
42691;BME280;28306;55.744;37.578;2022-10-26T00:41:20;100284.94;;;21.10;34.70
42691;BME280;28306;55.744;37.578;2022-10-26T00:43:47;100288.03;;;21.13;34.58
42691;BME280;28306;55.744;37.578;2022-10-26T00:46:25;100284.25;;;21.14;34.70
42691;BME280;28306;55.744;37.578;2022-10-26T00:48:55;100282.22;;;21.10;34.63
42691;BME280;28306;55.744;37.578;2022-10-26T00:51:43;100292.56;;;21.19;34.55
42691;BME280;28306;55.744;37.578;2022-10-26T00:54:13;100283.22;;;21.15;34.58
42691;BME280;28306;55.744;37.578;2022-10-26T00:56:43;100291.78;;;21.12;34.71
42691;BME280;28306;55.744;37.578;2022-10-26T00:59:11;100288.13;;;21.06;34.82
42691;BME280;28306;55.744;37.578;2022-10-26T01:01:40;100279.00;;;21.01;34.52
42691;BME280;28306;55.744;37.578;2022-10-26T01:04:07;100281.19;;;21.11;34.60
42691;BME280;28306;55.744;37.578;2022-10-26T01:06:35;100287.63;;;21.10;34.66
42691;BME280;28306;55.744;37.578;2022-10-26T01:09:02;100279.75;;;21.08;34.61
42691;BME280;28306;55.744;37.578;2022-10-26T01:11:28;100280.81;;;21.07;34.72
42691;BME280;28306;55.744;37.578;2022-10-26T01:13:55;100278.56;;;21.04;34.72
42691;BME280;28306;55.744;37.578;2022-10-26T01:16:40;100286.22;;;21.07;34.47
42691;BME280;28306;55.744;37.578;2022-10-26T01:19:45;100297.03;;;21.07;34.69
42691;BME280;28306;55.744;37.578;2022-10-26T01:22:46;100294.56;;;21.05;34.61
42691;BME280;28306;55.744;37.578;2022-10-26T01:28:01;100272.91;;;20.87;34.81
42691;BME280;28306;55.744;37.578;2022-10-26T01:30:38;100290.41;;;21.03;34.64
42691;BME280;28306;55.744;37.578;2022-10-26T01:46:47;100278.06;;;20.88;34.84
42691;BME280;28306;55.744;37.578;2022-10-26T01:49:16;100278.22;;;20.94;34.67
42691;BME280;28306;55.744;37.578;2022-10-26T01:51:46;100272.22;;;20.92;34.54
42691;BME280;28306;55.744;37.578;2022-10-26T01:54:12;100281.47;;;21.02;34.48
42691;BME280;28306;55.744;37.578;2022-10-26T01:56:40;100283.75;;;21.05;34.53
42691;BME280;28306;55.744;37.578;2022-10-26T01:59:20;100288.13;;;21.06;34.54
42691;BME280;28306;55.744;37.578;2022-10-26T02:16:24;100289.16;;;21.05;34.46
42691;BME280;28306;55.744;37.578;2022-10-26T02:18:54;100287.34;;;20.99;34.58
42691;BME280;28306;55.744;37.578;2022-10-26T02:21:28;100297.94;;;21.01;34.59
42691;BME280;28306;55.744;37.578;2022-10-26T02:23:58;100284.03;;;20.97;34.52
42691;BME280;28306;55.744;37.578;2022-10-26T02:26:27;100294.25;;;20.95;34.67
42691;BME280;28306;55.744;37.578;2022-10-26T02:28:56;100295.31;;;20.94;34.67
42691;BME280;28306;55.744;37.578;2022-10-26T02:31:24;100265.81;;;20.86;34.87
42691;BME280;28306;55.744;37.578;2022-10-26T02:33:52;100279.97;;;20.88;34.74
42691;BME280;28306;55.744;37.578;2022-10-26T02:36:25;100284.72;;;20.93;34.70
42691;BME280;28306;55.744;37.578;2022-10-26T02:38:53;100283.03;;;20.92;34.77
42691;BME280;28306;55.744;37.578;2022-10-26T02:41:20;100269.59;;;20.85;34.68
42691;BME280;28306;55.744;37.578;2022-10-26T02:44:25;100283.88;;;20.92;34.70
42691;BME280;28306;55.744;37.578;2022-10-26T02:46:52;100286.19;;;20.88;34.69
42691;BME280;28306;55.744;37.578;2022-10-26T02:49:19;100293.72;;;20.86;34.86
42691;BME280;28306;55.744;37.578;2022-10-26T02:52:01;100270.94;;;20.76;34.76
42691;BME280;28306;55.744;37.578;2022-10-26T02:57:00;100290.78;;;20.88;34.80
42691;BME280;28306;55.744;37.578;2022-10-26T02:59:27;100282.28;;;20.84;34.78
42691;BME280;28306;55.744;37.578;2022-10-26T03:01:55;100290.56;;;20.90;34.77
42691;BME280;28306;55.744;37.578;2022-10-26T03:04:28;100251.22;;;20.68;34.53
42691;BME280;28306;55.744;37.578;2022-10-26T03:06:54;100278.31;;;20.87;34.72
42691;BME280;28306;55.744;37.578;2022-10-26T03:09:20;100286.34;;;20.94;34.56
42691;BME280;28306;55.744;37.578;2022-10-26T03:11:45;100285.75;;;20.92;34.60
42691;BME280;28306;55.744;37.578;2022-10-26T03:14:11;100262.97;;;20.81;34.68
42691;BME280;28306;55.744;37.578;2022-10-26T03:16:36;100277.50;;;20.86;34.48
42691;BME280;28306;55.744;37.578;2022-10-26T03:19:02;100284.94;;;20.91;34.94
42691;BME280;28306;55.744;37.578;2022-10-26T03:21:28;100280.41;;;20.85;34.75
42691;BME280;28306;55.744;37.578;2022-10-26T03:23:53;100264.94;;;20.74;34.73
42691;BME280;28306;55.744;37.578;2022-10-26T03:26:19;100277.09;;;20.83;34.68
42691;BME280;28306;55.744;37.578;2022-10-26T03:28:45;100282.28;;;20.84;34.72
42691;BME280;28306;55.744;37.578;2022-10-26T03:31:11;100254.38;;;20.65;34.54
42691;BME280;28306;55.744;37.578;2022-10-26T03:33:37;100271.53;;;20.78;34.71
42691;BME280;28306;55.744;37.578;2022-10-26T03:36:03;100286.28;;;20.82;34.80
42691;BME280;28306;55.744;37.578;2022-10-26T03:38:29;100271.75;;;20.76;34.62
42691;BME280;28306;55.744;37.578;2022-10-26T03:40:54;100280.84;;;20.82;34.56
42691;BME280;28306;55.744;37.578;2022-10-26T03:43:20;100268.59;;;20.79;34.63
42691;BME280;28306;55.744;37.578;2022-10-26T03:45:45;100270.03;;;20.82;34.68
42691;BME280;28306;55.744;37.578;2022-10-26T03:48:12;100276.25;;;20.82;34.79
42691;BME280;28306;55.744;37.578;2022-10-26T03:50:37;100272.28;;;20.85;34.67
42691;BME280;28306;55.744;37.578;2022-10-26T03:53:03;100260.34;;;20.74;34.78
42691;BME280;28306;55.744;37.578;2022-10-26T03:55:29;100268.97;;;20.83;34.68
42691;BME280;28306;55.744;37.578;2022-10-26T03:57:54;100263.78;;;20.81;34.55
42691;BME280;28306;55.744;37.578;2022-10-26T04:00:20;100269.59;;;20.85;34.75
42691;BME280;28306;55.744;37.578;2022-10-26T04:02:54;100256.34;;;20.77;34.65
42691;BME280;28306;55.744;37.578;2022-10-26T04:05:20;100277.03;;;20.90;34.50
42691;BME280;28306;55.744;37.578;2022-10-26T04:07:56;100276.81;;;20.91;34.51
42691;BME280;28306;55.744;37.578;2022-10-26T04:10:24;100265.81;;;20.86;34.58
42691;BME280;28306;55.744;37.578;2022-10-26T04:12:50;100257.34;;;20.82;34.48
42691;BME280;28306;55.744;37.578;2022-10-26T04:15:17;100280.56;;;20.90;34.20
42691;BME280;28306;55.744;37.578;2022-10-26T04:17:43;100280.34;;;20.92;34.52
42691;BME280;28306;55.744;37.578;2022-10-26T04:20:09;100264.84;;;20.80;34.52
42691;BME280;28306;55.744;37.578;2022-10-26T04:22:35;100276.81;;;20.91;34.35
42691;BME280;28306;55.744;37.578;2022-10-26T04:25:05;100281.59;;;20.89;34.59
42691;BME280;28306;55.744;37.578;2022-10-26T04:27:31;100271.00;;;20.87;34.36
42691;BME280;28306;55.744;37.578;2022-10-26T04:29:57;100265.06;;;20.79;34.47
42691;BME280;28306;55.744;37.578;2022-10-26T04:32:23;100264.44;;;20.77;34.63
42691;BME280;28306;55.744;37.578;2022-10-26T04:34:48;100292.19;;;20.91;34.42
42691;BME280;28306;55.744;37.578;2022-10-26T04:37:14;100294.09;;;20.90;34.51
42691;BME280;28306;55.744;37.578;2022-10-26T04:39:39;100244.03;;;20.56;34.50
42691;BME280;28306;55.744;37.578;2022-10-26T04:42:05;100293.72;;;20.86;34.42
42691;BME280;28306;55.744;37.578;2022-10-26T04:44:31;100270.09;;;20.75;34.37
42691;BME280;28306;55.744;37.578;2022-10-26T04:46:57;100300.31;;;20.91;34.46
42691;BME280;28306;55.744;37.578;2022-10-26T04:49:23;100293.94;;;20.85;34.49
42691;BME280;28306;55.744;37.578;2022-10-26T04:51:48;100299.94;;;20.87;34.53
42691;BME280;28306;55.744;37.578;2022-10-26T04:54:14;100307.38;;;20.92;34.53
42691;BME280;28306;55.744;37.578;2022-10-26T04:56:39;100305.50;;;20.92;34.54
42691;BME280;28306;55.744;37.578;2022-10-26T04:59:05;100299.06;;;20.93;34.33
42691;BME280;28306;55.744;37.578;2022-10-26T05:01:31;100286.84;;;20.84;34.61
42691;BME280;28306;55.744;37.578;2022-10-26T05:03:56;100285.41;;;20.81;34.41
42691;BME280;28306;55.744;37.578;2022-10-26T05:06:22;100304.09;;;20.90;34.46
42691;BME280;28306;55.744;37.578;2022-10-26T05:08:48;100291.00;;;20.86;34.44
42691;BME280;28306;55.744;37.578;2022-10-26T05:11:14;100283.78;;;20.80;34.55
42691;BME280;28306;55.744;37.578;2022-10-26T05:13:40;100298.59;;;20.96;34.33
42691;BME280;28306;55.744;37.578;2022-10-26T05:16:06;100272.28;;;20.85;34.29
42691;BME280;28306;55.744;37.578;2022-10-26T05:18:32;100291.72;;;21.00;34.21
42691;BME280;28306;55.744;37.578;2022-10-26T05:20:58;100273.50;;;20.89;34.35
42691;BME280;28306;55.744;37.578;2022-10-26T05:23:23;100300.41;;;21.02;34.23
42691;BME280;28306;55.744;37.578;2022-10-26T05:25:49;100293.97;;;21.03;34.27
42691;BME280;28306;55.744;37.578;2022-10-26T05:28:16;100255.91;;;20.80;34.27
42691;BME280;28306;55.744;37.578;2022-10-26T05:30:44;100292.91;;;21.04;34.13
42691;BME280;28306;55.744;37.578;2022-10-26T05:33:11;100282.38;;;20.96;34.28
42691;BME280;28306;55.744;37.578;2022-10-26T05:35:37;100297.28;;;21.05;34.17
42691;BME280;28306;55.744;37.578;2022-10-26T05:38:11;100297.28;;;21.05;34.39
42691;BME280;28306;55.744;37.578;2022-10-26T05:40:38;100291.03;;;21.05;34.12
42691;BME280;28306;55.744;37.578;2022-10-26T05:43:10;100289.16;;;21.05;34.18
42691;BME280;28306;55.744;37.578;2022-10-26T05:45:36;100289.59;;;21.02;34.12
42691;BME280;28306;55.744;37.578;2022-10-26T05:48:01;100303.50;;;21.06;34.01
42691;BME280;28306;55.744;37.578;2022-10-26T05:50:27;100291.94;;;20.99;34.08
42691;BME280;28306;55.744;37.578;2022-10-26T05:52:52;100313.28;;;21.07;34.13
42691;BME280;28306;55.744;37.578;2022-10-26T05:55:19;100311.38;;;21.08;34.06
42691;BME280;28306;55.744;37.578;2022-10-26T05:57:46;100316.81;;;21.08;34.06
42691;BME280;28306;55.744;37.578;2022-10-26T06:00:18;100308.03;;;21.12;34.01
42691;BME280;28306;55.744;37.578;2022-10-26T06:02:57;100308.03;;;21.12;33.97
42691;BME280;28306;55.744;37.578;2022-10-26T06:05:27;100292.75;;;20.99;33.74
42691;BME280;28306;55.744;37.578;2022-10-26T06:07:54;100314.66;;;21.16;33.92
42691;BME280;28306;55.744;37.578;2022-10-26T06:10:19;100300.94;;;21.11;33.98
42691;BME280;28306;55.744;37.578;2022-10-26T06:12:45;100304.03;;;21.15;34.02
42691;BME280;28306;55.744;37.578;2022-10-26T06:15:18;100290.81;;;21.06;33.86
42691;BME280;28306;55.744;37.578;2022-10-26T06:22:58;100301.94;;;21.17;33.93
42691;BME280;28306;55.744;37.578;2022-10-26T06:25:39;100302.06;;;21.22;33.78
42691;BME280;28306;55.744;37.578;2022-10-26T06:28:38;100302.47;;;21.26;33.95
42691;BME280;28306;55.744;37.578;2022-10-26T06:31:05;100270.81;;;21.08;33.87
42691;BME280;28306;55.744;37.578;2022-10-26T06:33:31;100285.25;;;21.20;33.75
42691;BME280;28306;55.744;37.578;2022-10-26T06:36:05;100309.47;;;21.33;33.73
42691;BME280;28306;55.744;37.578;2022-10-26T06:38:34;100282.09;;;21.23;33.63
42691;BME280;28306;55.744;37.578;2022-10-26T06:41:01;100278.50;;;21.29;33.56
42691;BME280;28306;55.744;37.578;2022-10-26T06:43:31;100293.38;;;21.38;33.45
42691;BME280;28306;55.744;37.578;2022-10-26T06:46:17;100303.91;;;21.47;33.50
42691;BME280;28306;55.744;37.578;2022-10-26T06:48:52;100298.06;;;21.50;33.36
42691;BME280;28306;55.744;37.578;2022-10-26T06:51:21;100296.81;;;21.46;33.28
42691;BME280;28306;55.744;37.578;2022-10-26T06:54:19;100279.53;;;21.47;33.31
42691;BME280;28306;55.744;37.578;2022-10-26T06:56:48;100288.44;;;21.54;33.33
42691;BME280;28306;55.744;37.578;2022-10-26T06:59:20;100299.78;;;21.63;33.02
42691;BME280;28306;55.744;37.578;2022-10-26T07:01:47;100292.84;;;21.67;33.05
42691;BME280;28306;55.744;37.578;2022-10-26T07:04:13;100285.41;;;21.62;33.08
42691;BME280;28306;55.744;37.578;2022-10-26T07:06:38;100303.16;;;21.76;32.94
42691;BME280;28306;55.744;37.578;2022-10-26T07:09:04;100284.50;;;21.68;32.96
42691;BME280;28306;55.744;37.578;2022-10-26T07:11:29;100298.53;;;21.77;32.94
42691;BME280;28306;55.744;37.578;2022-10-26T07:13:55;100293.50;;;21.81;32.90
42691;BME280;28306;55.744;37.578;2022-10-26T07:16:21;100293.06;;;21.84;32.79
42691;BME280;28306;55.744;37.578;2022-10-26T07:18:47;100291.16;;;21.84;32.82
42691;BME280;28306;55.744;37.578;2022-10-26T07:21:13;100301.19;;;21.84;32.82
42691;BME280;28306;55.744;37.578;2022-10-26T07:23:38;100301.78;;;21.86;32.81
42691;BME280;28306;55.744;37.578;2022-10-26T07:26:04;100292.38;;;21.88;32.72
42691;BME280;28306;55.744;37.578;2022-10-26T07:28:30;100289.72;;;21.82;32.88
42691;BME280;28306;55.744;37.578;2022-10-26T07:30:57;100298.03;;;21.87;32.82
42691;BME280;28306;55.744;37.578;2022-10-26T07:33:22;100282.22;;;21.84;32.79
42691;BME280;28306;55.744;37.578;2022-10-26T07:35:48;100298.75;;;21.94;32.78
42691;BME280;28306;55.744;37.578;2022-10-26T07:38:14;100298.06;;;21.99;32.60
42691;BME280;28306;55.744;37.578;2022-10-26T07:40:39;100288.75;;;21.94;32.63
42691;BME280;28306;55.744;37.578;2022-10-26T07:43:05;100303.41;;;22.05;32.64
42691;BME280;28306;55.744;37.578;2022-10-26T07:45:31;100269.84;;;21.88;32.52
42691;BME280;28306;55.744;37.578;2022-10-26T07:47:56;100296.44;;;22.09;32.56
42691;BME280;28306;55.744;37.578;2022-10-26T07:50:22;100294.09;;;22.13;32.30
42691;BME280;28306;55.744;37.578;2022-10-26T07:52:48;100297.19;;;22.17;32.33
42691;BME280;28306;55.744;37.578;2022-10-26T07:55:14;100298.59;;;22.19;32.35
42691;BME280;28306;55.744;37.578;2022-10-26T07:57:39;100282.06;;;22.09;32.25
42691;BME280;28306;55.744;37.578;2022-10-26T08:00:07;100298.00;;;22.17;32.37
42691;BME280;28306;55.744;37.578;2022-10-26T08:02:33;100300.94;;;22.16;32.45
42691;BME280;28306;55.744;37.578;2022-10-26T08:04:59;100295.88;;;22.19;32.41
42691;BME280;28306;55.744;37.578;2022-10-26T08:07:25;100281.63;;;22.12;32.37
42691;BME280;28306;55.744;37.578;2022-10-26T08:09:51;100292.00;;;22.15;32.45
42691;BME280;28306;55.744;37.578;2022-10-26T08:12:17;100301.91;;;22.21;32.27
42691;BME280;28306;55.744;37.578;2022-10-26T08:14:42;100302.72;;;22.22;32.05
42691;BME280;28306;55.744;37.578;2022-10-26T08:17:08;100304.97;;;22.25;32.17
42691;BME280;28306;55.744;37.578;2022-10-26T08:19:34;100305.22;;;22.23;32.26
42691;BME280;28306;55.744;37.578;2022-10-26T08:22:00;100298.13;;;22.22;32.23
42691;BME280;28306;55.744;37.578;2022-10-26T08:24:25;100297.78;;;22.19;32.20
42691;BME280;28306;55.744;37.578;2022-10-26T08:26:51;100302.97;;;22.20;32.20
42691;BME280;28306;55.744;37.578;2022-10-26T08:29:16;100290.69;;;22.18;32.21
42691;BME280;28306;55.744;37.578;2022-10-26T08:31:42;100295.06;;;22.19;32.25
42691;BME280;28306;55.744;37.578;2022-10-26T08:34:08;100285.38;;;22.11;32.21
42691;BME280;28306;55.744;37.578;2022-10-26T08:36:33;100283.88;;;22.15;32.31
42691;BME280;28306;55.744;37.578;2022-10-26T08:38:59;100301.91;;;22.21;32.38
42691;BME280;28306;55.744;37.578;2022-10-26T08:41:42;100300.84;;;22.22;32.30
42691;BME280;28306;55.744;37.578;2022-10-26T08:44:31;100303.69;;;22.27;32.17
42691;BME280;28306;55.744;37.578;2022-10-26T08:47:16;100290.09;;;22.16;32.29
42691;BME280;28306;55.744;37.578;2022-10-26T08:49:51;100302.84;;;22.27;32.23
42691;BME280;28306;55.744;37.578;2022-10-26T08:52:24;100304.50;;;22.28;32.37
42691;BME280;28306;55.744;37.578;2022-10-26T08:54:53;100301.22;;;22.26;32.52
42691;BME280;28306;55.744;37.578;2022-10-26T08:59:55;100298.28;;;22.27;32.42
42691;BME280;28306;55.744;37.578;2022-10-26T09:02:22;100299.88;;;22.35;32.50
42691;BME280;28306;55.744;37.578;2022-10-26T09:04:50;100305.50;;;22.34;32.52
42691;BME280;28306;55.744;37.578;2022-10-26T09:07:35;100302.34;;;22.37;32.47
42691;BME280;28306;55.744;37.578;2022-10-26T09:15:46;100301.25;;;22.38;32.61
42691;BME280;28306;55.744;37.578;2022-10-26T09:21:15;100307.28;;;22.40;32.68
42691;BME280;28306;55.744;37.578;2022-10-26T09:24:10;100303.97;;;22.38;32.64
42691;BME280;28306;55.744;37.578;2022-10-26T09:26:55;100294.44;;;22.35;32.75
42691;BME280;28306;55.744;37.578;2022-10-26T09:29:27;100306.41;;;22.27;32.56
42691;BME280;28306;55.744;37.578;2022-10-26T09:31:56;100308.69;;;22.30;32.88
42691;BME280;28306;55.744;37.578;2022-10-26T09:36:53;100295.34;;;22.29;32.85
42691;BME280;28306;55.744;37.578;2022-10-26T09:39:56;100296.38;;;22.28;32.91
42691;BME280;28306;55.744;37.578;2022-10-26T09:42:36;100307.22;;;22.28;33.12
42691;BME280;28306;55.744;37.578;2022-10-26T09:45:15;100303.28;;;22.30;33.33
42691;BME280;28306;55.744;37.578;2022-10-26T09:47:52;100285.66;;;22.21;32.86
42691;BME280;28306;55.744;37.578;2022-10-26T09:50:25;100298.19;;;22.34;32.88
42691;BME280;28306;55.744;37.578;2022-10-26T09:52:53;100291.34;;;22.31;32.78
42691;BME280;28306;55.744;37.578;2022-10-26T09:55:18;100283.06;;;22.26;32.72
42691;BME280;28306;55.744;37.578;2022-10-26T09:57:48;100305.63;;;22.39;32.79
42691;BME280;28306;55.744;37.578;2022-10-26T10:00:18;100287.72;;;22.38;32.61
42691;BME280;28306;55.744;37.578;2022-10-26T10:02:47;100307.66;;;22.43;32.94
42691;BME280;28306;55.744;37.578;2022-10-26T10:05:26;100292.78;;;22.46;32.75
42691;BME280;28306;55.744;37.578;2022-10-26T10:08:09;100294.09;;;22.43;32.73
42691;BME280;28306;55.744;37.578;2022-10-26T10:10:35;100297.63;;;22.44;32.79
42691;BME280;28306;55.744;37.578;2022-10-26T10:13:14;100276.03;;;22.37;32.88
42691;BME280;28306;55.744;37.578;2022-10-26T10:15:53;100287.81;;;22.43;32.64
42691;BME280;28306;55.744;37.578;2022-10-26T10:18:21;100287.72;;;22.38;32.92
42691;BME280;28306;55.744;37.578;2022-10-26T10:20:55;100296.56;;;22.45;32.91
42691;BME280;28306;55.744;37.578;2022-10-26T10:23:26;100292.19;;;22.44;32.73
42691;BME280;28306;55.744;37.578;2022-10-26T10:26:01;100291.72;;;22.47;32.88
42691;BME280;28306;55.744;37.578;2022-10-26T10:28:28;100284.66;;;22.46;32.88
42691;BME280;28306;55.744;37.578;2022-10-26T10:31:00;100279.69;;;22.43;32.82
42691;BME280;28306;55.744;37.578;2022-10-26T10:33:39;100266.59;;;22.40;33.05
42691;BME280;28306;55.744;37.578;2022-10-26T10:36:12;100286.66;;;22.50;32.83
42691;BME280;28306;55.744;37.578;2022-10-26T10:38:41;100276.28;;;22.47;32.73
42691;BME280;28306;55.744;37.578;2022-10-26T10:41:18;100279.59;;;22.49;32.73
42691;BME280;28306;55.744;37.578;2022-10-26T10:43:47;100280.66;;;22.48;32.85
42691;BME280;28306;55.744;37.578;2022-10-26T10:46:19;100266.88;;;22.38;32.88
42691;BME280;28306;55.744;37.578;2022-10-26T10:48:47;100283.84;;;22.45;32.84
42691;BME280;28306;55.744;37.578;2022-10-26T10:51:20;100265.09;;;22.32;32.68
42691;BME280;28306;55.744;37.578;2022-10-26T10:53:52;100294.44;;;22.47;32.61
42691;BME280;28306;55.744;37.578;2022-10-26T10:56:39;100288.31;;;22.52;32.55
42691;BME280;28306;55.744;37.578;2022-10-26T10:59:32;100288.09;;;22.53;32.46
42691;BME280;28306;55.744;37.578;2022-10-26T11:04:52;100289.97;;;22.53;32.64
42691;BME280;28306;55.744;37.578;2022-10-26T11:07:24;100271.44;;;22.38;32.44
42691;BME280;28306;55.744;37.578;2022-10-26T11:09:52;100291.63;;;22.54;32.76
42691;BME280;28306;55.744;37.578;2022-10-26T11:12:28;100294.09;;;22.55;32.61
42691;BME280;28306;55.744;37.578;2022-10-26T11:15:01;100291.16;;;22.57;32.52
42691;BME280;28306;55.744;37.578;2022-10-26T11:17:50;100288.59;;;22.62;32.50
42691;BME280;28306;55.744;37.578;2022-10-26T11:20:21;100287.16;;;22.59;32.54
42691;BME280;28306;55.744;37.578;2022-10-26T11:23:02;100287.88;;;22.66;32.30
42691;BME280;28306;55.744;37.578;2022-10-26T11:25:34;100285.88;;;22.62;32.42
42691;BME280;28306;55.744;37.578;2022-10-26T11:31:06;100275.72;;;22.57;32.55
42691;BME280;28306;55.744;37.578;2022-10-26T11:33:53;100284.78;;;22.63;32.62
42691;BME280;28306;55.744;37.578;2022-10-26T11:36:23;100279.03;;;22.59;32.50
42691;BME280;28306;55.744;37.578;2022-10-26T11:42:05;100271.94;;;22.58;32.61
42691;BME280;28306;55.744;37.578;2022-10-26T11:44:48;100279.72;;;22.55;32.70
42691;BME280;28306;55.744;37.578;2022-10-26T11:47:23;100257.78;;;22.44;32.55
42691;BME280;28306;55.744;37.578;2022-10-26T11:53:15;100265.47;;;22.59;32.65
42691;BME280;28306;55.744;37.578;2022-10-26T11:55:39;100265.69;;;22.58;32.60
42691;BME280;28306;55.744;37.578;2022-10-26T11:58:09;100270.06;;;22.59;32.48
42691;BME280;28306;55.744;37.578;2022-10-26T12:00:44;100266.50;;;22.58;32.78
42691;BME280;28306;55.744;37.578;2022-10-26T12:03:15;100268.63;;;22.56;32.72
42691;BME280;28306;55.744;37.578;2022-10-26T12:05:49;100255.31;;;22.55;32.67
42691;BME280;28306;55.744;37.578;2022-10-26T12:08:27;100260.28;;;22.58;32.73
42691;BME280;28306;55.744;37.578;2022-10-26T12:17:08;100263.44;;;22.55;32.75
42691;BME280;28306;55.744;37.578;2022-10-26T12:22:10;100241.25;;;22.46;32.63
42691;BME280;28306;55.744;37.578;2022-10-26T12:24:45;100257.78;;;22.56;32.59
42691;BME280;28306;55.744;37.578;2022-10-26T12:27:47;100218.06;;;22.38;32.44
42691;BME280;28306;55.744;37.578;2022-10-26T12:35:32;100255.78;;;22.52;32.74
42691;BME280;28306;55.744;37.578;2022-10-26T12:38:00;100253.31;;;22.50;32.83
42691;BME280;28306;55.744;37.578;2022-10-26T12:42:55;100257.69;;;22.51;32.68
42691;BME280;28306;55.744;37.578;2022-10-26T12:45:22;100240.22;;;22.47;32.71
42691;BME280;28306;55.744;37.578;2022-10-26T13:00:12;100252.81;;;22.41;32.88
42691;BME280;28306;55.744;37.578;2022-10-26T13:03:00;100250.72;;;22.43;32.86
42691;BME280;28306;55.744;37.578;2022-10-26T13:08:16;100257.66;;;22.39;32.98
42691;BME280;28306;55.744;37.578;2022-10-26T13:11:00;100246.22;;;22.37;32.80
42691;BME280;28306;55.744;37.578;2022-10-26T13:13:28;100240.69;;;22.32;32.99
42691;BME280;28306;55.744;37.578;2022-10-26T13:15:57;100249.41;;;22.34;32.98
42691;BME280;28306;55.744;37.578;2022-10-26T13:18:23;100252.34;;;22.33;33.15
42691;BME280;28306;55.744;37.578;2022-10-26T13:21:06;100248.34;;;22.35;33.14
42691;BME280;28306;55.744;37.578;2022-10-26T13:23:36;100252.34;;;22.33;33.23
42691;BME280;28306;55.744;37.578;2022-10-26T13:26:17;100248.81;;;22.32;33.20
42691;BME280;28306;55.744;37.578;2022-10-26T13:28:46;100250.19;;;22.23;33.32
42691;BME280;28306;55.744;37.578;2022-10-26T13:33:57;100236.25;;;22.19;33.11
42691;BME280;28306;55.744;37.578;2022-10-26T13:36:36;100249.88;;;22.31;33.21
42691;BME280;28306;55.744;37.578;2022-10-26T13:39:09;100257.38;;;22.29;33.28
42691;BME280;28306;55.744;37.578;2022-10-26T13:41:41;100236.47;;;22.18;33.40
42691;BME280;28306;55.744;37.578;2022-10-26T13:44:15;100253.81;;;22.28;33.26
42691;BME280;28306;55.744;37.578;2022-10-26T13:46:44;100260.31;;;22.27;33.11
42691;BME280;28306;55.744;37.578;2022-10-26T13:49:29;100254.06;;;22.27;33.15
42691;BME280;28306;55.744;37.578;2022-10-26T13:51:59;100251.56;;;22.13;33.10
42691;BME280;28306;55.744;37.578;2022-10-26T13:54:43;100261.84;;;22.23;33.23
42691;BME280;28306;55.744;37.578;2022-10-26T13:57:43;100261.25;;;22.21;33.33
42691;BME280;28306;55.744;37.578;2022-10-26T14:00:19;100253.44;;;22.13;33.29
42691;BME280;28306;55.744;37.578;2022-10-26T14:02:45;100262.66;;;22.12;33.37
42691;BME280;28306;55.744;37.578;2022-10-26T14:05:13;100268.75;;;22.07;33.38
42691;BME280;28306;55.744;37.578;2022-10-26T14:07:52;100266.06;;;22.07;33.31
42691;BME280;28306;55.744;37.578;2022-10-26T14:12:56;100259.31;;;21.98;33.36
42691;BME280;28306;55.744;37.578;2022-10-26T14:15:24;100257.63;;;21.97;33.07
42691;BME280;28306;55.744;37.578;2022-10-26T14:17:51;100232.25;;;21.80;33.21
42691;BME280;28306;55.744;37.578;2022-10-26T14:20:19;100262.47;;;21.95;33.02
42691;BME280;28306;55.744;37.578;2022-10-26T14:22:46;100236.88;;;21.79;32.76
42691;BME280;28306;55.744;37.578;2022-10-26T14:25:26;100269.56;;;21.96;32.93
42691;BME280;28306;55.744;37.578;2022-10-26T14:27:52;100258.78;;;21.89;33.01
42691;BME280;28306;55.744;37.578;2022-10-26T14:30:29;100268.72;;;21.95;32.82
42691;BME280;28306;55.744;37.578;2022-10-26T14:32:55;100272.50;;;21.94;32.70
42691;BME280;28306;55.744;37.578;2022-10-26T14:35:24;100275.19;;;21.94;32.63
42691;BME280;28306;55.744;37.578;2022-10-26T14:38:03;100266.00;;;21.95;32.55
42691;BME280;28306;55.744;37.578;2022-10-26T14:40:33;100261.72;;;21.88;32.30